sensor_id;sensor_type;location;lat;lon;timestamp;temperature;humidity
18721;DHT22;9489;50.948;3.114;2022-10-16T00:01:12;13.90;99.90
18721;DHT22;9489;50.948;3.114;2022-10-16T00:03:40;13.90;99.90
18721;DHT22;9489;50.948;3.114;2022-10-16T00:06:06;13.80;99.90
18721;DHT22;9489;50.948;3.114;2022-10-16T00:08:32;13.80;99.90
18721;DHT22;9489;50.948;3.114;2022-10-16T00:11:00;13.70;99.90
18721;DHT22;9489;50.948;3.114;2022-10-16T00:13:26;13.60;99.90
18721;DHT22;9489;50.948;3.114;2022-10-16T00:15:55;13.60;99.90
18721;DHT22;9489;50.948;3.114;2022-10-16T00:18:21;13.60;99.90
18721;DHT22;9489;50.948;3.114;2022-10-16T00:20:46;13.60;99.90
18721;DHT22;9489;50.948;3.114;2022-10-16T00:23:12;13.60;99.90
18721;DHT22;9489;50.948;3.114;2022-10-16T00:25:38;13.60;99.90
18721;DHT22;9489;50.948;3.114;2022-10-16T00:28:03;13.60;99.90
18721;DHT22;9489;50.948;3.114;2022-10-16T00:30:29;13.50;99.90
18721;DHT22;9489;50.948;3.114;2022-10-16T00:32:55;13.60;99.90
18721;DHT22;9489;50.948;3.114;2022-10-16T00:35:21;13.60;99.90
18721;DHT22;9489;50.948;3.114;2022-10-16T00:37:47;13.60;99.90
18721;DHT22;9489;50.948;3.114;2022-10-16T00:40:13;13.60;99.90
18721;DHT22;9489;50.948;3.114;2022-10-16T00:42:38;13.60;99.90
18721;DHT22;9489;50.948;3.114;2022-10-16T00:45:04;13.60;99.90
18721;DHT22;9489;50.948;3.114;2022-10-16T00:47:34;13.60;99.90
18721;DHT22;9489;50.948;3.114;2022-10-16T00:50:08;13.60;99.90
18721;DHT22;9489;50.948;3.114;2022-10-16T00:52:35;13.60;99.90
18721;DHT22;9489;50.948;3.114;2022-10-16T00:55:03;13.50;99.90
18721;DHT22;9489;50.948;3.114;2022-10-16T00:57:29;13.50;99.90
18721;DHT22;9489;50.948;3.114;2022-10-16T00:59:56;13.50;99.90
18721;DHT22;9489;50.948;3.114;2022-10-16T01:02:22;13.50;99.90
18721;DHT22;9489;50.948;3.114;2022-10-16T01:04:50;13.40;99.90
18721;DHT22;9489;50.948;3.114;2022-10-16T01:10:14;13.30;99.90
18721;DHT22;9489;50.948;3.114;2022-10-16T01:13:07;13.30;99.90
18721;DHT22;9489;50.948;3.114;2022-10-16T01:15:47;13.40;99.90
18721;DHT22;9489;50.948;3.114;2022-10-16T01:18:18;13.40;99.90
18721;DHT22;9489;50.948;3.114;2022-10-16T01:20:57;13.30;99.90
18721;DHT22;9489;50.948;3.114;2022-10-16T01:31:50;13.30;99.90
18721;DHT22;9489;50.948;3.114;2022-10-16T01:34:22;13.20;99.90
18721;DHT22;9489;50.948;3.114;2022-10-16T01:36:58;13.20;99.90
18721;DHT22;9489;50.948;3.114;2022-10-16T01:39:29;13.20;99.90
18721;DHT22;9489;50.948;3.114;2022-10-16T01:42:31;13.20;99.90
18721;DHT22;9489;50.948;3.114;2022-10-16T01:45:00;13.20;99.90
18721;DHT22;9489;50.948;3.114;2022-10-16T01:47:27;13.20;99.90
18721;DHT22;9489;50.948;3.114;2022-10-16T01:49:56;13.20;99.90
18721;DHT22;9489;50.948;3.114;2022-10-16T01:52:26;13.20;99.90
18721;DHT22;9489;50.948;3.114;2022-10-16T01:54:54;13.20;99.90
18721;DHT22;9489;50.948;3.114;2022-10-16T01:57:21;13.30;99.90
18721;DHT22;9489;50.948;3.114;2022-10-16T01:59:52;13.30;99.90
18721;DHT22;9489;50.948;3.114;2022-10-16T02:02:20;13.30;99.90
18721;DHT22;9489;50.948;3.114;2022-10-16T02:04:49;13.20;99.90
18721;DHT22;9489;50.948;3.114;2022-10-16T02:07:16;13.30;99.90
18721;DHT22;9489;50.948;3.114;2022-10-16T02:09:43;13.30;99.90
18721;DHT22;9489;50.948;3.114;2022-10-16T02:12:32;13.30;99.90
18721;DHT22;9489;50.948;3.114;2022-10-16T02:14:59;13.30;99.90
18721;DHT22;9489;50.948;3.114;2022-10-16T02:17:25;13.30;99.90
18721;DHT22;9489;50.948;3.114;2022-10-16T02:19:53;13.30;99.90
18721;DHT22;9489;50.948;3.114;2022-10-16T02:22:42;13.30;99.90
18721;DHT22;9489;50.948;3.114;2022-10-16T02:28:02;13.30;99.90
18721;DHT22;9489;50.948;3.114;2022-10-16T02:30:44;13.30;99.90
18721;DHT22;9489;50.948;3.114;2022-10-16T02:33:14;13.30;99.90
18721;DHT22;9489;50.948;3.114;2022-10-16T02:35:41;13.30;99.90
18721;DHT22;9489;50.948;3.114;2022-10-16T02:38:08;13.20;99.90
18721;DHT22;9489;50.948;3.114;2022-10-16T02:40:34;13.20;99.90
18721;DHT22;9489;50.948;3.114;2022-10-16T02:43:03;13.30;99.90
18721;DHT22;9489;50.948;3.114;2022-10-16T02:45:29;13.20;99.90
18721;DHT22;9489;50.948;3.114;2022-10-16T02:47:54;13.20;99.90
18721;DHT22;9489;50.948;3.114;2022-10-16T02:50:20;13.20;99.90
18721;DHT22;9489;50.948;3.114;2022-10-16T02:52:46;13.20;99.90
18721;DHT22;9489;50.948;3.114;2022-10-16T02:55:12;13.20;99.90
18721;DHT22;9489;50.948;3.114;2022-10-16T02:57:37;13.20;99.90
18721;DHT22;9489;50.948;3.114;2022-10-16T03:00:09;13.20;99.90
18721;DHT22;9489;50.948;3.114;2022-10-16T03:02:35;13.20;99.90
18721;DHT22;9489;50.948;3.114;2022-10-16T03:05:01;13.10;99.90
18721;DHT22;9489;50.948;3.114;2022-10-16T03:07:26;13.20;99.90
18721;DHT22;9489;50.948;3.114;2022-10-16T03:09:52;13.10;99.90
18721;DHT22;9489;50.948;3.114;2022-10-16T03:12:18;13.20;99.90
18721;DHT22;9489;50.948;3.114;2022-10-16T03:14:43;13.20;99.90
18721;DHT22;9489;50.948;3.114;2022-10-16T03:17:09;13.20;99.90
18721;DHT22;9489;50.948;3.114;2022-10-16T03:19:34;13.20;99.90
18721;DHT22;9489;50.948;3.114;2022-10-16T03:22:01;13.20;99.90
18721;DHT22;9489;50.948;3.114;2022-10-16T03:24:27;13.10;99.90
18721;DHT22;9489;50.948;3.114;2022-10-16T03:26:52;13.10;99.90
18721;DHT22;9489;50.948;3.114;2022-10-16T03:29:18;13.10;99.90
18721;DHT22;9489;50.948;3.114;2022-10-16T03:31:43;13.10;99.90
18721;DHT22;9489;50.948;3.114;2022-10-16T03:34:09;13.10;99.90
18721;DHT22;9489;50.948;3.114;2022-10-16T03:36:35;13.10;99.90
18721;DHT22;9489;50.948;3.114;2022-10-16T03:39:00;13.10;99.90
18721;DHT22;9489;50.948;3.114;2022-10-16T03:41:26;13.10;99.90
18721;DHT22;9489;50.948;3.114;2022-10-16T03:43:51;13.10;99.90
18721;DHT22;9489;50.948;3.114;2022-10-16T03:46:17;13.10;99.90
18721;DHT22;9489;50.948;3.114;2022-10-16T03:48:43;13.00;99.90
18721;DHT22;9489;50.948;3.114;2022-10-16T03:51:08;13.00;99.90
18721;DHT22;9489;50.948;3.114;2022-10-16T03:53:34;13.00;99.90
18721;DHT22;9489;50.948;3.114;2022-10-16T03:55:59;13.00;99.90
18721;DHT22;9489;50.948;3.114;2022-10-16T03:58:25;13.00;99.90
18721;DHT22;9489;50.948;3.114;2022-10-16T04:00:51;12.90;99.90
18721;DHT22;9489;50.948;3.114;2022-10-16T04:03:17;13.00;99.90
18721;DHT22;9489;50.948;3.114;2022-10-16T04:05:44;12.90;99.90
18721;DHT22;9489;50.948;3.114;2022-10-16T04:08:10;12.90;99.90
18721;DHT22;9489;50.948;3.114;2022-10-16T04:10:35;12.90;99.90
18721;DHT22;9489;50.948;3.114;2022-10-16T04:13:01;12.80;99.90
18721;DHT22;9489;50.948;3.114;2022-10-16T04:15:27;12.80;99.90
18721;DHT22;9489;50.948;3.114;2022-10-16T04:17:52;12.70;99.90
18721;DHT22;9489;50.948;3.114;2022-10-16T04:20:18;12.70;99.90
18721;DHT22;9489;50.948;3.114;2022-10-16T04:22:44;12.70;99.90
18721;DHT22;9489;50.948;3.114;2022-10-16T04:25:10;12.70;99.90
18721;DHT22;9489;50.948;3.114;2022-10-16T04:27:37;12.80;99.90
18721;DHT22;9489;50.948;3.114;2022-10-16T04:30:04;12.80;99.90
18721;DHT22;9489;50.948;3.114;2022-10-16T04:32:30;12.80;99.90
18721;DHT22;9489;50.948;3.114;2022-10-16T04:34:55;12.80;99.90
18721;DHT22;9489;50.948;3.114;2022-10-16T04:37:25;12.80;99.90
18721;DHT22;9489;50.948;3.114;2022-10-16T04:39:51;12.90;99.90
18721;DHT22;9489;50.948;3.114;2022-10-16T04:42:17;12.90;99.90
18721;DHT22;9489;50.948;3.114;2022-10-16T04:44:42;12.90;99.90
18721;DHT22;9489;50.948;3.114;2022-10-16T04:47:08;13.00;99.90
18721;DHT22;9489;50.948;3.114;2022-10-16T04:49:34;13.00;99.90
18721;DHT22;9489;50.948;3.114;2022-10-16T04:51:59;13.00;99.90
18721;DHT22;9489;50.948;3.114;2022-10-16T04:54:25;13.10;99.90
18721;DHT22;9489;50.948;3.114;2022-10-16T04:56:51;13.10;99.90
18721;DHT22;9489;50.948;3.114;2022-10-16T04:59:18;13.10;99.90
18721;DHT22;9489;50.948;3.114;2022-10-16T05:01:44;13.10;99.90
18721;DHT22;9489;50.948;3.114;2022-10-16T05:04:10;13.10;99.90
18721;DHT22;9489;50.948;3.114;2022-10-16T05:06:36;13.10;99.90
18721;DHT22;9489;50.948;3.114;2022-10-16T05:09:03;13.20;99.90
18721;DHT22;9489;50.948;3.114;2022-10-16T05:11:28;13.20;99.90
18721;DHT22;9489;50.948;3.114;2022-10-16T05:13:54;13.10;99.90
18721;DHT22;9489;50.948;3.114;2022-10-16T05:16:19;13.10;99.90
18721;DHT22;9489;50.948;3.114;2022-10-16T05:18:45;13.10;99.90
18721;DHT22;9489;50.948;3.114;2022-10-16T05:21:10;13.10;99.90
18721;DHT22;9489;50.948;3.114;2022-10-16T05:23:36;13.10;99.90
18721;DHT22;9489;50.948;3.114;2022-10-16T05:26:02;13.00;99.90
18721;DHT22;9489;50.948;3.114;2022-10-16T05:28:29;13.00;99.90
18721;DHT22;9489;50.948;3.114;2022-10-16T05:30:56;13.00;99.90
18721;DHT22;9489;50.948;3.114;2022-10-16T05:33:23;13.00;99.90
18721;DHT22;9489;50.948;3.114;2022-10-16T05:35:50;12.90;99.90
18721;DHT22;9489;50.948;3.114;2022-10-16T05:38:17;12.90;99.90
18721;DHT22;9489;50.948;3.114;2022-10-16T05:40:43;12.90;99.90
18721;DHT22;9489;50.948;3.114;2022-10-16T05:43:09;12.80;99.90
18721;DHT22;9489;50.948;3.114;2022-10-16T05:45:35;12.90;99.90
18721;DHT22;9489;50.948;3.114;2022-10-16T05:48:00;12.80;99.90
18721;DHT22;9489;50.948;3.114;2022-10-16T05:50:26;12.80;99.90
18721;DHT22;9489;50.948;3.114;2022-10-16T05:52:52;12.90;99.90
18721;DHT22;9489;50.948;3.114;2022-10-16T05:55:18;12.80;99.90
18721;DHT22;9489;50.948;3.114;2022-10-16T05:57:44;12.80;99.90
18721;DHT22;9489;50.948;3.114;2022-10-16T06:00:11;12.80;99.90
18721;DHT22;9489;50.948;3.114;2022-10-16T06:02:37;12.80;99.90
18721;DHT22;9489;50.948;3.114;2022-10-16T06:05:02;12.70;99.90
18721;DHT22;9489;50.948;3.114;2022-10-16T06:07:28;12.70;99.90
18721;DHT22;9489;50.948;3.114;2022-10-16T06:09:53;12.70;99.90
18721;DHT22;9489;50.948;3.114;2022-10-16T06:12:20;12.70;99.90
18721;DHT22;9489;50.948;3.114;2022-10-16T06:14:46;12.70;99.90
18721;DHT22;9489;50.948;3.114;2022-10-16T06:17:13;12.60;99.90
18721;DHT22;9489;50.948;3.114;2022-10-16T06:19:39;12.60;99.90
18721;DHT22;9489;50.948;3.114;2022-10-16T06:22:05;12.60;99.90
18721;DHT22;9489;50.948;3.114;2022-10-16T06:24:31;12.60;99.90
18721;DHT22;9489;50.948;3.114;2022-10-16T06:26:57;12.60;99.90
18721;DHT22;9489;50.948;3.114;2022-10-16T06:29:22;12.60;99.90
18721;DHT22;9489;50.948;3.114;2022-10-16T06:31:51;12.60;99.90
18721;DHT22;9489;50.948;3.114;2022-10-16T06:34:16;12.60;99.90
18721;DHT22;9489;50.948;3.114;2022-10-16T06:36:42;12.70;99.90
18721;DHT22;9489;50.948;3.114;2022-10-16T06:39:08;12.70;99.90
18721;DHT22;9489;50.948;3.114;2022-10-16T06:41:34;12.70;99.90
18721;DHT22;9489;50.948;3.114;2022-10-16T06:44:01;12.70;99.90
18721;DHT22;9489;50.948;3.114;2022-10-16T06:46:27;12.70;99.90
18721;DHT22;9489;50.948;3.114;2022-10-16T06:48:53;12.70;99.90
18721;DHT22;9489;50.948;3.114;2022-10-16T06:51:21;12.80;99.90
18721;DHT22;9489;50.948;3.114;2022-10-16T06:53:49;12.80;99.90
18721;DHT22;9489;50.948;3.114;2022-10-16T06:58:43;12.80;99.90
18721;DHT22;9489;50.948;3.114;2022-10-16T07:01:10;12.90;99.90
18721;DHT22;9489;50.948;3.114;2022-10-16T07:03:37;13.00;99.90
18721;DHT22;9489;50.948;3.114;2022-10-16T07:06:05;13.00;99.90
18721;DHT22;9489;50.948;3.114;2022-10-16T07:08:32;13.10;99.90
18721;DHT22;9489;50.948;3.114;2022-10-16T07:11:03;13.10;99.90
18721;DHT22;9489;50.948;3.114;2022-10-16T07:13:29;13.30;99.90
18721;DHT22;9489;50.948;3.114;2022-10-16T07:15:54;13.40;99.90
18721;DHT22;9489;50.948;3.114;2022-10-16T07:18:20;13.50;99.90
18721;DHT22;9489;50.948;3.114;2022-10-16T07:20:47;13.60;99.90
18721;DHT22;9489;50.948;3.114;2022-10-16T07:23:12;13.70;99.90
18721;DHT22;9489;50.948;3.114;2022-10-16T07:25:38;13.80;99.90
18721;DHT22;9489;50.948;3.114;2022-10-16T07:28:03;13.90;99.90
18721;DHT22;9489;50.948;3.114;2022-10-16T07:30:29;14.20;99.90
18721;DHT22;9489;50.948;3.114;2022-10-16T07:32:55;14.50;99.90
18721;DHT22;9489;50.948;3.114;2022-10-16T07:35:20;14.70;99.90
18721;DHT22;9489;50.948;3.114;2022-10-16T07:37:46;14.70;99.90
18721;DHT22;9489;50.948;3.114;2022-10-16T07:40:12;14.60;99.90
18721;DHT22;9489;50.948;3.114;2022-10-16T07:42:38;14.60;99.90
18721;DHT22;9489;50.948;3.114;2022-10-16T07:45:04;14.60;99.90
18721;DHT22;9489;50.948;3.114;2022-10-16T07:47:30;14.90;99.90
18721;DHT22;9489;50.948;3.114;2022-10-16T07:49:55;15.40;99.90
18721;DHT22;9489;50.948;3.114;2022-10-16T07:52:21;15.90;99.90
18721;DHT22;9489;50.948;3.114;2022-10-16T07:54:47;16.40;99.90
18721;DHT22;9489;50.948;3.114;2022-10-16T07:57:12;16.80;99.90
18721;DHT22;9489;50.948;3.114;2022-10-16T07:59:45;17.20;99.90
18721;DHT22;9489;50.948;3.114;2022-10-16T08:02:10;17.60;99.90
18721;DHT22;9489;50.948;3.114;2022-10-16T08:04:36;17.80;99.90
18721;DHT22;9489;50.948;3.114;2022-10-16T08:07:01;18.30;99.90
18721;DHT22;9489;50.948;3.114;2022-10-16T08:09:27;18.70;99.90
18721;DHT22;9489;50.948;3.114;2022-10-16T08:11:52;19.00;99.90
18721;DHT22;9489;50.948;3.114;2022-10-16T08:14:18;19.50;99.90
18721;DHT22;9489;50.948;3.114;2022-10-16T08:16:44;20.10;99.90
18721;DHT22;9489;50.948;3.114;2022-10-16T08:19:09;20.00;99.90
18721;DHT22;9489;50.948;3.114;2022-10-16T08:21:35;20.50;99.90
18721;DHT22;9489;50.948;3.114;2022-10-16T08:24:00;20.90;99.90
18721;DHT22;9489;50.948;3.114;2022-10-16T08:26:27;21.30;99.90
18721;DHT22;9489;50.948;3.114;2022-10-16T08:28:52;21.90;99.90
18721;DHT22;9489;50.948;3.114;2022-10-16T08:31:18;22.10;99.90
18721;DHT22;9489;50.948;3.114;2022-10-16T08:33:44;22.10;99.90
18721;DHT22;9489;50.948;3.114;2022-10-16T08:36:12;22.20;99.90
18721;DHT22;9489;50.948;3.114;2022-10-16T08:38:38;22.40;99.90
18721;DHT22;9489;50.948;3.114;2022-10-16T08:41:17;22.50;99.90
18721;DHT22;9489;50.948;3.114;2022-10-16T08:47:06;22.60;99.90
18721;DHT22;9489;50.948;3.114;2022-10-16T08:49:33;22.70;99.90
18721;DHT22;9489;50.948;3.114;2022-10-16T08:51:59;22.60;99.90
18721;DHT22;9489;50.948;3.114;2022-10-16T08:54:37;22.90;99.90
18721;DHT22;9489;50.948;3.114;2022-10-16T08:57:11;23.10;99.90
18721;DHT22;9489;50.948;3.114;2022-10-16T08:59:37;23.50;99.90
18721;DHT22;9489;50.948;3.114;2022-10-16T09:02:50;23.70;99.90
18721;DHT22;9489;50.948;3.114;2022-10-16T09:05:22;24.20;99.90
18721;DHT22;9489;50.948;3.114;2022-10-16T09:08:09;24.30;99.90
18721;DHT22;9489;50.948;3.114;2022-10-16T09:10:44;24.00;99.90
18721;DHT22;9489;50.948;3.114;2022-10-16T09:21:37;24.60;99.90
18721;DHT22;9489;50.948;3.114;2022-10-16T09:24:17;25.00;99.90
18721;DHT22;9489;50.948;3.114;2022-10-16T09:26:44;24.80;99.90
18721;DHT22;9489;50.948;3.114;2022-10-16T09:29:16;25.20;99.90
18721;DHT22;9489;50.948;3.114;2022-10-16T09:31:42;25.60;99.90
18721;DHT22;9489;50.948;3.114;2022-10-16T09:36:56;26.30;99.90
18721;DHT22;9489;50.948;3.114;2022-10-16T09:39:22;26.30;99.90
18721;DHT22;9489;50.948;3.114;2022-10-16T09:41:48;26.00;99.90
18721;DHT22;9489;50.948;3.114;2022-10-16T09:46:46;25.80;99.90
18721;DHT22;9489;50.948;3.114;2022-10-16T09:49:23;26.10;99.90
18721;DHT22;9489;50.948;3.114;2022-10-16T09:51:50;26.70;99.90
18721;DHT22;9489;50.948;3.114;2022-10-16T09:54:18;26.90;99.90
18721;DHT22;9489;50.948;3.114;2022-10-16T09:56:45;26.90;99.90
18721;DHT22;9489;50.948;3.114;2022-10-16T09:59:21;26.80;99.90
18721;DHT22;9489;50.948;3.114;2022-10-16T10:01:53;27.30;99.90
18721;DHT22;9489;50.948;3.114;2022-10-16T10:04:23;27.40;99.90
18721;DHT22;9489;50.948;3.114;2022-10-16T10:06:49;27.10;99.90
18721;DHT22;9489;50.948;3.114;2022-10-16T10:09:22;27.40;99.90
18721;DHT22;9489;50.948;3.114;2022-10-16T10:14:35;27.60;99.90
18721;DHT22;9489;50.948;3.114;2022-10-16T10:17:10;28.10;99.90
18721;DHT22;9489;50.948;3.114;2022-10-16T10:27:39;28.00;99.90
18721;DHT22;9489;50.948;3.114;2022-10-16T10:33:12;28.60;99.90
18721;DHT22;9489;50.948;3.114;2022-10-16T10:35:45;27.80;99.90
18721;DHT22;9489;50.948;3.114;2022-10-16T10:38:33;27.90;99.90
18721;DHT22;9489;50.948;3.114;2022-10-16T10:49:47;27.90;99.90
18721;DHT22;9489;50.948;3.114;2022-10-16T10:54:57;26.30;99.90
18721;DHT22;9489;50.948;3.114;2022-10-16T10:57:29;26.00;99.90
18721;DHT22;9489;50.948;3.114;2022-10-16T11:05:40;26.90;99.90
18721;DHT22;9489;50.948;3.114;2022-10-16T11:08:22;27.40;99.90
18721;DHT22;9489;50.948;3.114;2022-10-16T11:11:05;28.40;99.90
18721;DHT22;9489;50.948;3.114;2022-10-16T11:13:40;28.50;99.90
18721;DHT22;9489;50.948;3.114;2022-10-16T11:16:20;29.60;99.90
18721;DHT22;9489;50.948;3.114;2022-10-16T11:21:39;29.20;99.90
18721;DHT22;9489;50.948;3.114;2022-10-16T11:24:24;28.30;99.90
18721;DHT22;9489;50.948;3.114;2022-10-16T11:26:55;28.60;99.90
18721;DHT22;9489;50.948;3.114;2022-10-16T11:29:29;29.00;99.90
18721;DHT22;9489;50.948;3.114;2022-10-16T11:32:05;28.60;99.90
18721;DHT22;9489;50.948;3.114;2022-10-16T11:34:36;28.50;99.90
18721;DHT22;9489;50.948;3.114;2022-10-16T11:37:25;27.50;99.90
18721;DHT22;9489;50.948;3.114;2022-10-16T11:39:56;26.20;99.90
18721;DHT22;9489;50.948;3.114;2022-10-16T11:42:32;26.00;99.90
18721;DHT22;9489;50.948;3.114;2022-10-16T11:47:50;28.60;99.90
18721;DHT22;9489;50.948;3.114;2022-10-16T11:50:39;29.40;98.90
18721;DHT22;9489;50.948;3.114;2022-10-16T11:53:18;29.70;98.20
18721;DHT22;9489;50.948;3.114;2022-10-16T11:55:47;28.30;98.20
18721;DHT22;9489;50.948;3.114;2022-10-16T11:58:29;26.40;99.90
18721;DHT22;9489;50.948;3.114;2022-10-16T12:07:34;23.90;99.90
18721;DHT22;9489;50.948;3.114;2022-10-16T12:09:57;23.80;99.90
18721;DHT22;9489;50.948;3.114;2022-10-16T12:12:28;23.50;99.90
18721;DHT22;9489;50.948;3.114;2022-10-16T12:15:22;22.90;99.90
18721;DHT22;9489;50.948;3.114;2022-10-16T12:17:49;22.80;99.90
18721;DHT22;9489;50.948;3.114;2022-10-16T12:28:00;23.60;99.90
18721;DHT22;9489;50.948;3.114;2022-10-16T12:30:28;23.20;99.90
18721;DHT22;9489;50.948;3.114;2022-10-16T12:33:00;23.50;99.90
18721;DHT22;9489;50.948;3.114;2022-10-16T12:35:30;23.80;99.90
18721;DHT22;9489;50.948;3.114;2022-10-16T12:38:31;24.30;99.90
18721;DHT22;9489;50.948;3.114;2022-10-16T12:41:08;26.40;99.90
18721;DHT22;9489;50.948;3.114;2022-10-16T12:43:40;27.00;99.90
18721;DHT22;9489;50.948;3.114;2022-10-16T12:48:39;26.90;99.90
18721;DHT22;9489;50.948;3.114;2022-10-16T12:59:17;27.90;99.90
18721;DHT22;9489;50.948;3.114;2022-10-16T13:10:09;23.90;99.90
18721;DHT22;9489;50.948;3.114;2022-10-16T13:15:45;22.90;99.90
18721;DHT22;9489;50.948;3.114;2022-10-16T13:19:23;22.60;99.90
18721;DHT22;9489;50.948;3.114;2022-10-16T13:21:39;21.80;99.90
18721;DHT22;9489;50.948;3.114;2022-10-16T13:29:20;20.80;99.90
18721;DHT22;9489;50.948;3.114;2022-10-16T13:31:46;20.50;99.90
18721;DHT22;9489;50.948;3.114;2022-10-16T13:34:17;20.40;99.90
18721;DHT22;9489;50.948;3.114;2022-10-16T13:36:48;20.30;99.90
18721;DHT22;9489;50.948;3.114;2022-10-16T13:39:28;20.10;99.90
18721;DHT22;9489;50.948;3.114;2022-10-16T13:42:04;20.10;99.90
18721;DHT22;9489;50.948;3.114;2022-10-16T13:44:35;19.90;99.90
18721;DHT22;9489;50.948;3.114;2022-10-16T13:47:02;19.90;99.90
18721;DHT22;9489;50.948;3.114;2022-10-16T13:49:28;19.90;99.90
18721;DHT22;9489;50.948;3.114;2022-10-16T13:51:55;19.80;99.90
18721;DHT22;9489;50.948;3.114;2022-10-16T13:54:22;19.70;99.90
18721;DHT22;9489;50.948;3.114;2022-10-16T13:56:48;19.80;99.90
18721;DHT22;9489;50.948;3.114;2022-10-16T13:59:32;19.70;99.90
18721;DHT22;9489;50.948;3.114;2022-10-16T14:01:58;19.80;99.90
18721;DHT22;9489;50.948;3.114;2022-10-16T14:04:27;19.70;99.90
18721;DHT22;9489;50.948;3.114;2022-10-16T14:06:55;19.60;99.90
18721;DHT22;9489;50.948;3.114;2022-10-16T14:09:24;19.40;99.90
18721;DHT22;9489;50.948;3.114;2022-10-16T14:12:00;19.40;99.90
18721;DHT22;9489;50.948;3.114;2022-10-16T14:14:41;19.40;99.90
18721;DHT22;9489;50.948;3.114;2022-10-16T14:17:21;19.30;99.90
18721;DHT22;9489;50.948;3.114;2022-10-16T14:19:49;19.30;99.90
18721;DHT22;9489;50.948;3.114;2022-10-16T14:22:38;19.30;99.90
18721;DHT22;9489;50.948;3.114;2022-10-16T14:28:04;19.20;99.90
18721;DHT22;9489;50.948;3.114;2022-10-16T14:30:53;18.90;99.90
18721;DHT22;9489;50.948;3.114;2022-10-16T14:38:40;18.80;99.90
18721;DHT22;9489;50.948;3.114;2022-10-16T14:41:06;18.70;99.90
18721;DHT22;9489;50.948;3.114;2022-10-16T14:45:59;18.70;99.90
18721;DHT22;9489;50.948;3.114;2022-10-16T14:48:26;18.60;99.90
18721;DHT22;9489;50.948;3.114;2022-10-16T14:50:52;18.60;99.90
18721;DHT22;9489;50.948;3.114;2022-10-16T14:53:18;18.60;99.90
18721;DHT22;9489;50.948;3.114;2022-10-16T14:55:44;18.50;99.90
18721;DHT22;9489;50.948;3.114;2022-10-16T14:58:21;18.50;99.90
18721;DHT22;9489;50.948;3.114;2022-10-16T15:00:47;18.30;99.90
18721;DHT22;9489;50.948;3.114;2022-10-16T15:03:13;18.30;99.90
18721;DHT22;9489;50.948;3.114;2022-10-16T15:05:39;18.30;99.90
18721;DHT22;9489;50.948;3.114;2022-10-16T15:08:04;18.30;99.90
18721;DHT22;9489;50.948;3.114;2022-10-16T15:10:31;18.30;99.90
18721;DHT22;9489;50.948;3.114;2022-10-16T15:12:58;18.20;99.90
18721;DHT22;9489;50.948;3.114;2022-10-16T15:17:53;18.10;99.90
18721;DHT22;9489;50.948;3.114;2022-10-16T15:20:32;18.20;99.90
18721;DHT22;9489;50.948;3.114;2022-10-16T15:23:04;18.10;99.90
18721;DHT22;9489;50.948;3.114;2022-10-16T15:25:53;18.10;99.90
18721;DHT22;9489;50.948;3.114;2022-10-16T15:28:20;18.20;99.90
18721;DHT22;9489;50.948;3.114;2022-10-16T15:30:46;18.10;99.90
18721;DHT22;9489;50.948;3.114;2022-10-16T15:33:16;18.10;99.90
18721;DHT22;9489;50.948;3.114;2022-10-16T15:35:45;18.00;99.90
18721;DHT22;9489;50.948;3.114;2022-10-16T15:38:12;17.90;99.90
18721;DHT22;9489;50.948;3.114;2022-10-16T15:40:38;17.90;99.90
18721;DHT22;9489;50.948;3.114;2022-10-16T15:43:04;18.00;99.90
18721;DHT22;9489;50.948;3.114;2022-10-16T15:45:29;17.90;99.90
18721;DHT22;9489;50.948;3.114;2022-10-16T15:47:55;17.90;99.90
18721;DHT22;9489;50.948;3.114;2022-10-16T15:50:21;17.80;99.90
18721;DHT22;9489;50.948;3.114;2022-10-16T15:52:46;17.90;99.90
18721;DHT22;9489;50.948;3.114;2022-10-16T15:55:13;17.90;99.90
18721;DHT22;9489;50.948;3.114;2022-10-16T15:57:39;17.90;99.90
18721;DHT22;9489;50.948;3.114;2022-10-16T16:00:08;17.80;99.90
18721;DHT22;9489;50.948;3.114;2022-10-16T16:02:33;17.80;99.90
18721;DHT22;9489;50.948;3.114;2022-10-16T16:04:59;17.90;99.90
18721;DHT22;9489;50.948;3.114;2022-10-16T16:07:25;17.90;99.90
18721;DHT22;9489;50.948;3.114;2022-10-16T16:09:52;17.90;99.90
18721;DHT22;9489;50.948;3.114;2022-10-16T16:12:18;17.90;99.90
18721;DHT22;9489;50.948;3.114;2022-10-16T16:14:44;17.90;99.90
18721;DHT22;9489;50.948;3.114;2022-10-16T16:17:11;17.90;99.90
18721;DHT22;9489;50.948;3.114;2022-10-16T16:19:37;17.80;99.90
18721;DHT22;9489;50.948;3.114;2022-10-16T16:22:02;17.80;99.90
18721;DHT22;9489;50.948;3.114;2022-10-16T16:24:28;17.80;99.90
18721;DHT22;9489;50.948;3.114;2022-10-16T16:26:54;17.90;99.90
18721;DHT22;9489;50.948;3.114;2022-10-16T16:29:19;17.90;99.90
18721;DHT22;9489;50.948;3.114;2022-10-16T16:31:45;17.90;99.90
18721;DHT22;9489;50.948;3.114;2022-10-16T16:34:12;17.90;99.90
18721;DHT22;9489;50.948;3.114;2022-10-16T16:36:38;17.90;99.90
18721;DHT22;9489;50.948;3.114;2022-10-16T16:39:06;17.80;99.90
18721;DHT22;9489;50.948;3.114;2022-10-16T16:41:33;17.80;99.90
18721;DHT22;9489;50.948;3.114;2022-10-16T16:44:06;17.70;99.90
18721;DHT22;9489;50.948;3.114;2022-10-16T16:46:33;17.60;99.90
18721;DHT22;9489;50.948;3.114;2022-10-16T16:48:59;17.50;99.90
18721;DHT22;9489;50.948;3.114;2022-10-16T16:51:25;17.50;99.90
18721;DHT22;9489;50.948;3.114;2022-10-16T16:53:52;17.60;99.90
18721;DHT22;9489;50.948;3.114;2022-10-16T16:56:20;17.60;99.90
18721;DHT22;9489;50.948;3.114;2022-10-16T16:58:47;17.60;99.90
18721;DHT22;9489;50.948;3.114;2022-10-16T17:01:13;17.60;99.90
18721;DHT22;9489;50.948;3.114;2022-10-16T17:03:42;17.50;99.90
18721;DHT22;9489;50.948;3.114;2022-10-16T17:06:10;17.60;99.90
18721;DHT22;9489;50.948;3.114;2022-10-16T17:08:37;17.60;99.90
18721;DHT22;9489;50.948;3.114;2022-10-16T17:11:04;17.60;99.90
18721;DHT22;9489;50.948;3.114;2022-10-16T17:13:32;17.60;99.90
18721;DHT22;9489;50.948;3.114;2022-10-16T17:16:04;17.70;99.90
18721;DHT22;9489;50.948;3.114;2022-10-16T17:18:31;17.70;99.90
18721;DHT22;9489;50.948;3.114;2022-10-16T17:21:01;17.60;99.90
18721;DHT22;9489;50.948;3.114;2022-10-16T17:23:28;17.60;99.90
18721;DHT22;9489;50.948;3.114;2022-10-16T17:25:54;17.60;99.90
18721;DHT22;9489;50.948;3.114;2022-10-16T17:28:20;17.60;99.90
18721;DHT22;9489;50.948;3.114;2022-10-16T17:30:46;17.60;99.90
18721;DHT22;9489;50.948;3.114;2022-10-16T17:33:12;17.60;99.90
18721;DHT22;9489;50.948;3.114;2022-10-16T17:35:45;17.50;99.90
18721;DHT22;9489;50.948;3.114;2022-10-16T17:38:12;17.50;99.90
18721;DHT22;9489;50.948;3.114;2022-10-16T17:40:39;17.50;99.90
18721;DHT22;9489;50.948;3.114;2022-10-16T17:43:06;17.50;99.90
18721;DHT22;9489;50.948;3.114;2022-10-16T17:45:36;17.50;99.90
18721;DHT22;9489;50.948;3.114;2022-10-16T17:48:02;17.50;99.90
18721;DHT22;9489;50.948;3.114;2022-10-16T17:50:28;17.40;99.90
18721;DHT22;9489;50.948;3.114;2022-10-16T17:52:53;17.50;99.90
18721;DHT22;9489;50.948;3.114;2022-10-16T17:55:19;17.40;99.90
18721;DHT22;9489;50.948;3.114;2022-10-16T17:57:44;17.40;99.90
18721;DHT22;9489;50.948;3.114;2022-10-16T18:00:10;17.40;99.90